Wickford, United Kingdom
Current Conditions -  °F | °C
As of 9:50 PM on Friday 24 Oct 2014 (Local Time) from EGMC Reporting Station
Broken Clouds Broken Clouds  
Wind Chill: 59°   Ceiling: 3500
Heat Index: 59°   Visibility: 6mi
Dew Point: 54°   Wind: 9mph
Humidity: 82%   Direction: 250°WSW
Pressure: 29.94"   Gusts: NA
Location:  51.61°N, 0.52°E
Report Text: EGMC 242050Z 25008KT 9999 FEW020 BKN035 15/12 Q1014
Loading
Personal Weather Stations






























Interactive Weather Map
Tropical Storm Tracking
New forecast layout! Learn more

10-Day Weather Forecast

Advertisements
Track Severe Weather on mobile